LGL16TA LFBZ-ELLX
Flight info
| Callsign | LGL16TA |
|---|---|
| Flight time | 1h 21m |
| Altitude | 34000 |
| Route | VAVIX DCT ADABI DCT BOKNO UN858 VANAD UN874 VADOM/N0437F280 UL976 TSU UM163 LEQOS DCT CTL DCT MMD |
| Aircraft | B738/M-SDE2E3FGHIRWXY/LB1 |
Departure
| Time | 2026-04-22 11:48 |
|---|---|
| Airport | Biarritz Pays Basque airport (LFBZ) |
Arrival
| Time | 2026-04-22 13:09 |
|---|---|
| Airport | Luxembourg-Findel International Airport (ELLX) |
| Time | Latitude | Longitude | Altitude | Speed | Heading |
|---|---|---|---|---|---|
| 2026-04-22 11:14 | 43.47128 | -1.53001 | 255 ft | 0 kts | 359° |
| 2026-04-22 11:40 | 43.47125 | -1.53001 | 255 ft | 3 kts | 360° |
| 2026-04-22 11:40 | 43.47098 | -1.53003 | 255 ft | 4 kts | 9° |
| 2026-04-22 11:40 | 43.47072 | -1.53013 | 255 ft | 4 kts | 29° |
| 2026-04-22 11:40 | 43.47055 | -1.53035 | 255 ft | 4 kts | 82° |
| 2026-04-22 11:41 | 43.47055 | -1.53041 | 255 ft | 1 kts | 90° |
| 2026-04-22 11:42 | 43.47055 | -1.53040 | 255 ft | 0 kts | 90° |
| 2026-04-22 11:43 | 43.47055 | -1.53019 | 255 ft | 5 kts | 90° |
| 2026-04-22 11:43 | 43.47054 | -1.52941 | 254 ft | 12 kts | 96° |
| 2026-04-22 11:43 | 43.46997 | -1.52830 | 253 ft | 17 kts | 107° |
| 2026-04-22 11:43 | 43.46994 | -1.52627 | 252 ft | 24 kts | 89° |
| 2026-04-22 11:44 | 43.46998 | -1.52367 | 250 ft | 30 kts | 89° |
| 2026-04-22 11:44 | 43.46956 | -1.52180 | 249 ft | 16 kts | 162° |
| 2026-04-22 11:44 | 43.46944 | -1.52177 | 249 ft | 0 kts | 174° |
| 2026-04-22 11:45 | 43.46930 | -1.52176 | 249 ft | 5 kts | 178° |
| 2026-04-22 11:45 | 43.46866 | -1.52152 | 248 ft | 14 kts | 142° |
| 2026-04-22 11:45 | 43.46843 | -1.51982 | 248 ft | 24 kts | 89° |
| 2026-04-22 11:45 | 43.46846 | -1.51706 | 245 ft | 34 kts | 89° |
| 2026-04-22 11:46 | 43.46851 | -1.51341 | 242 ft | 43 kts | 89° |
| 2026-04-22 11:46 | 43.46874 | -1.51030 | 241 ft | 12 kts | 61° |
| 2026-04-22 11:46 | 43.46856 | -1.50973 | 240 ft | 7 kts | 209° |
| 2026-04-22 11:46 | 43.46853 | -1.51045 | 241 ft | 0 kts | 268° |
| 2026-04-22 11:47 | 43.46851 | -1.51271 | 241 ft | 66 kts | 269° |
| 2026-04-22 11:47 | 43.46841 | -1.52300 | 251 ft | 147 kts | 269° |
| 2026-04-22 11:47 | 43.46822 | -1.53936 | 657 ft | 190 kts | 270° |
| 2026-04-22 11:48 | 43.46812 | -1.55874 | 1297 ft | 214 kts | 271° |
| 2026-04-22 11:48 | 43.46787 | -1.57996 | 2169 ft | 228 kts | 270° |
| 2026-04-22 11:48 | 43.47058 | -1.60135 | 3115 ft | 227 kts | 290° |
| 2026-04-22 11:48 | 43.47884 | -1.62030 | 3651 ft | 248 kts | 307° |
| 2026-04-22 11:49 | 43.49371 | -1.63499 | 3914 ft | 285 kts | 338° |
| 2026-04-22 11:49 | 43.51439 | -1.63762 | 4301 ft | 317 kts | 7° |
| 2026-04-22 11:49 | 43.53615 | -1.62882 | 4876 ft | 336 kts | 22° |
| 2026-04-22 11:49 | 43.55753 | -1.61448 | 5561 ft | 347 kts | 29° |
| 2026-04-22 11:50 | 43.57804 | -1.59659 | 6373 ft | 347 kts | 36° |
| 2026-04-22 11:50 | 43.59648 | -1.57705 | 6700 ft | 322 kts | 41° |
| 2026-04-22 11:50 | 43.61240 | -1.55686 | 6988 ft | 302 kts | 47° |
| 2026-04-22 11:50 | 43.62657 | -1.53545 | 6995 ft | 301 kts | 50° |
| 2026-04-22 11:51 | 43.64021 | -1.51373 | 7238 ft | 297 kts | 50° |
| 2026-04-22 11:51 | 43.65385 | -1.49221 | 7992 ft | 300 kts | 50° |
| 2026-04-22 11:51 | 43.66782 | -1.47057 | 8876 ft | 301 kts | 48° |
| 2026-04-22 11:51 | 43.68184 | -1.44920 | 9804 ft | 302 kts | 47° |
| 2026-04-22 11:52 | 43.69606 | -1.42772 | 10401 ft | 314 kts | 47° |
| 2026-04-22 11:52 | 43.71142 | -1.40466 | 10633 ft | 338 kts | 47° |
| 2026-04-22 11:52 | 43.72799 | -1.37986 | 10799 ft | 364 kts | 47° |
| 2026-04-22 11:52 | 43.74569 | -1.35339 | 11079 ft | 382 kts | 47° |
| 2026-04-22 11:53 | 43.76398 | -1.32606 | 11610 ft | 391 kts | 47° |
| 2026-04-22 11:53 | 43.78255 | -1.29828 | 12331 ft | 393 kts | 47° |
| 2026-04-22 11:53 | 43.80128 | -1.27043 | 13040 ft | 397 kts | 45° |
| 2026-04-22 11:53 | 43.82131 | -1.24425 | 13627 ft | 403 kts | 41° |
| 2026-04-22 11:54 | 43.84256 | -1.21897 | 14356 ft | 403 kts | 39° |
| 2026-04-22 11:54 | 43.86424 | -1.19381 | 14938 ft | 408 kts | 39° |
| 2026-04-22 11:54 | 43.88614 | -1.16836 | 15577 ft | 411 kts | 39° |
| 2026-04-22 11:54 | 43.90804 | -1.14262 | 16187 ft | 414 kts | 39° |
| 2026-04-22 11:55 | 43.92259 | -1.12536 | 16637 ft | 415 kts | 39° |
| 2026-04-22 11:55 | 43.94457 | -1.09910 | 17268 ft | 418 kts | 39° |
| 2026-04-22 11:55 | 43.97389 | -1.06382 | 18078 ft | 422 kts | 39° |
| 2026-04-22 11:55 | 43.99615 | -1.03693 | 18596 ft | 425 kts | 39° |
| 2026-04-22 11:56 | 44.01122 | -1.01869 | 18980 ft | 426 kts | 39° |
| 2026-04-22 11:56 | 44.03364 | -0.99154 | 19521 ft | 429 kts | 39° |
| 2026-04-22 11:56 | 44.05588 | -0.96457 | 20078 ft | 430 kts | 39° |
| 2026-04-22 11:56 | 44.07848 | -0.93714 | 20576 ft | 433 kts | 39° |
| 2026-04-22 11:57 | 44.10125 | -0.90949 | 21064 ft | 436 kts | 39° |
| 2026-04-22 11:57 | 44.12416 | -0.88164 | 21550 ft | 439 kts | 39° |
| 2026-04-22 11:57 | 44.14719 | -0.85361 | 22050 ft | 440 kts | 39° |
| 2026-04-22 11:57 | 44.17033 | -0.82542 | 22525 ft | 443 kts | 39° |
| 2026-04-22 11:58 | 44.19360 | -0.79704 | 22986 ft | 446 kts | 39° |
| 2026-04-22 11:58 | 44.21711 | -0.76834 | 23431 ft | 449 kts | 39° |
| 2026-04-22 11:58 | 44.24058 | -0.73965 | 23845 ft | 450 kts | 39° |
| 2026-04-22 11:58 | 44.26430 | -0.71066 | 24224 ft | 453 kts | 39° |
| 2026-04-22 11:59 | 44.28967 | -0.68603 | 24565 ft | 450 kts | 22° |
| 2026-04-22 11:59 | 44.31891 | -0.67061 | 24987 ft | 449 kts | 17° |
| 2026-04-22 11:59 | 44.34843 | -0.65621 | 25349 ft | 451 kts | 17° |
| 2026-04-22 11:59 | 44.37815 | -0.64159 | 25681 ft | 454 kts | 17° |
| 2026-04-22 12:00 | 44.40795 | -0.62670 | 26015 ft | 456 kts | 17° |
| 2026-04-22 12:00 | 44.43789 | -0.61152 | 26371 ft | 458 kts | 17° |
| 2026-04-22 12:00 | 44.46791 | -0.59613 | 26693 ft | 460 kts | 18° |
| 2026-04-22 12:00 | 44.49805 | -0.58058 | 27016 ft | 462 kts | 18° |
| 2026-04-22 12:01 | 44.52829 | -0.56490 | 27348 ft | 464 kts | 18° |
| 2026-04-22 12:01 | 44.55864 | -0.54913 | 27655 ft | 466 kts | 18° |
| 2026-04-22 12:01 | 44.58914 | -0.53326 | 27960 ft | 468 kts | 18° |
| 2026-04-22 12:01 | 44.61970 | -0.51736 | 28275 ft | 470 kts | 17° |
| 2026-04-22 12:02 | 44.65036 | -0.50138 | 28656 ft | 470 kts | 17° |
| 2026-04-22 12:02 | 44.68094 | -0.48542 | 29141 ft | 467 kts | 17° |
| 2026-04-22 12:02 | 44.71091 | -0.46977 | 29654 ft | 465 kts | 17° |
| 2026-04-22 12:02 | 44.74122 | -0.45392 | 30097 ft | 463 kts | 17° |
| 2026-04-22 12:03 | 44.77147 | -0.43810 | 30435 ft | 463 kts | 17° |
| 2026-04-22 12:03 | 44.80171 | -0.42227 | 30763 ft | 462 kts | 17° |
| 2026-04-22 12:03 | 44.83184 | -0.40648 | 31109 ft | 461 kts | 17° |
| 2026-04-22 12:03 | 44.86191 | -0.39070 | 31478 ft | 460 kts | 17° |
| 2026-04-22 12:04 | 44.89155 | -0.37513 | 31825 ft | 459 kts | 17° |
| 2026-04-22 12:04 | 44.92148 | -0.35939 | 32141 ft | 458 kts | 17° |
| 2026-04-22 12:04 | 44.95137 | -0.34366 | 32465 ft | 458 kts | 17° |
| 2026-04-22 12:04 | 44.98122 | -0.32793 | 32814 ft | 456 kts | 16° |
| 2026-04-22 12:05 | 45.01096 | -0.31223 | 33150 ft | 456 kts | 16° |
| 2026-04-22 12:05 | 45.04068 | -0.29653 | 33462 ft | 455 kts | 16° |
| 2026-04-22 12:05 | 45.07032 | -0.28086 | 33787 ft | 454 kts | 16° |
| 2026-04-22 12:05 | 45.09998 | -0.26516 | 33962 ft | 456 kts | 16° |
| 2026-04-22 12:06 | 45.15939 | -0.23369 | 33943 ft | 459 kts | 16° |
| 2026-04-22 12:06 | 45.21878 | -0.20209 | 33945 ft | 452 kts | 16° |
| 2026-04-22 12:07 | 45.27764 | -0.17073 | 33957 ft | 452 kts | 16° |
| 2026-04-22 12:07 | 45.33658 | -0.13927 | 33959 ft | 452 kts | 16° |
| 2026-04-22 12:08 | 45.39558 | -0.10772 | 33962 ft | 452 kts | 16° |
| 2026-04-22 12:08 | 45.45418 | -0.07629 | 33956 ft | 453 kts | 16° |
| 2026-04-22 12:09 | 45.51317 | -0.04459 | 33964 ft | 453 kts | 16° |
| 2026-04-22 12:09 | 45.57225 | -0.01277 | 33976 ft | 453 kts | 16° |
| 2026-04-22 12:10 | 45.63137 | 0.01915 | 33973 ft | 454 kts | 16° |
| 2026-04-22 12:10 | 45.69051 | 0.05115 | 33964 ft | 455 kts | 16° |
| 2026-04-22 12:11 | 45.74975 | 0.08327 | 33969 ft | 455 kts | 16° |
| 2026-04-22 12:11 | 45.80860 | 0.11526 | 33968 ft | 455 kts | 16° |
| 2026-04-22 12:12 | 45.86779 | 0.14750 | 33967 ft | 455 kts | 16° |
| 2026-04-22 12:12 | 45.92699 | 0.17983 | 33972 ft | 455 kts | 16° |
| 2026-04-22 12:13 | 45.98616 | 0.21222 | 33988 ft | 455 kts | 16° |
| 2026-04-22 12:13 | 46.04530 | 0.24466 | 33997 ft | 455 kts | 16° |
| 2026-04-22 12:14 | 46.10446 | 0.27719 | 33997 ft | 454 kts | 16° |
| 2026-04-22 12:14 | 46.16317 | 0.30954 | 34001 ft | 454 kts | 16° |
| 2026-04-22 12:15 | 46.22216 | 0.34212 | 34006 ft | 454 kts | 16° |
| 2026-04-22 12:15 | 46.28119 | 0.37480 | 34015 ft | 454 kts | 16° |
| 2026-04-22 12:16 | 46.34024 | 0.40757 | 34025 ft | 453 kts | 16° |
| 2026-04-22 12:16 | 46.39911 | 0.44032 | 34017 ft | 453 kts | 16° |
| 2026-04-22 12:17 | 46.45790 | 0.47309 | 34039 ft | 452 kts | 16° |
| 2026-04-22 12:17 | 46.51630 | 0.50573 | 34047 ft | 451 kts | 16° |
| 2026-04-22 12:18 | 46.57514 | 0.53698 | 34046 ft | 446 kts | 10° |
| 2026-04-22 12:18 | 46.63542 | 0.55717 | 34051 ft | 444 kts | 7° |
| 2026-04-22 12:19 | 46.69586 | 0.57568 | 34042 ft | 444 kts | 7° |
| 2026-04-22 12:19 | 46.75617 | 0.59501 | 34040 ft | 444 kts | 8° |
| 2026-04-22 12:20 | 46.81643 | 0.61490 | 34048 ft | 444 kts | 8° |
| 2026-04-22 12:20 | 46.87673 | 0.63494 | 34047 ft | 445 kts | 8° |
| 2026-04-22 12:21 | 46.93684 | 0.65494 | 34043 ft | 445 kts | 8° |
| 2026-04-22 12:21 | 46.99735 | 0.67510 | 34059 ft | 446 kts | 8° |
| 2026-04-22 12:22 | 47.05806 | 0.69405 | 34048 ft | 443 kts | 2° |
| 2026-04-22 12:22 | 47.11917 | 0.70107 | 34056 ft | 440 kts | 358° |
| 2026-04-22 12:23 | 47.17995 | 0.70604 | 34077 ft | 440 kts | 358° |
| 2026-04-22 12:23 | 47.24131 | 0.71188 | 34069 ft | 441 kts | 359° |
| 2026-04-22 12:24 | 47.30259 | 0.71826 | 34072 ft | 441 kts | 359° |
| 2026-04-22 12:24 | 47.36378 | 0.72473 | 34075 ft | 441 kts | 359° |
| 2026-04-22 12:25 | 47.42455 | 0.73113 | 34079 ft | 440 kts | 359° |
| 2026-04-22 12:25 | 47.48564 | 0.73799 | 34075 ft | 441 kts | 2° |
| 2026-04-22 12:26 | 47.54557 | 0.76138 | 34078 ft | 449 kts | 13° |
| 2026-04-22 12:26 | 47.60460 | 0.79155 | 34088 ft | 448 kts | 13° |
| 2026-04-22 12:27 | 47.66356 | 0.82121 | 34074 ft | 447 kts | 13° |
| 2026-04-22 12:27 | 47.72258 | 0.85042 | 34103 ft | 445 kts | 13° |
| 2026-04-22 12:28 | 47.78137 | 0.87949 | 34094 ft | 445 kts | 13° |
| 2026-04-22 12:28 | 47.84004 | 0.90860 | 34102 ft | 444 kts | 13° |
| 2026-04-22 12:29 | 47.89820 | 0.93786 | 34106 ft | 444 kts | 13° |
| 2026-04-22 12:29 | 47.95669 | 0.96749 | 34101 ft | 443 kts | 13° |
| 2026-04-22 12:30 | 48.04432 | 1.01197 | 34106 ft | 444 kts | 13° |
| 2026-04-22 12:31 | 48.10282 | 1.04173 | 34120 ft | 444 kts | 13° |
| 2026-04-22 12:31 | 48.16110 | 1.07144 | 34122 ft | 445 kts | 13° |
| 2026-04-22 12:32 | 48.21981 | 1.10145 | 34145 ft | 446 kts | 13° |
| 2026-04-22 12:32 | 48.30833 | 1.14655 | 34128 ft | 448 kts | 13° |
| 2026-04-22 12:33 | 48.36745 | 1.17675 | 34129 ft | 448 kts | 13° |
| 2026-04-22 12:33 | 48.42613 | 1.20682 | 34141 ft | 448 kts | 13° |
| 2026-04-22 12:34 | 48.48521 | 1.23717 | 34149 ft | 448 kts | 13° |
| 2026-04-22 12:34 | 48.54115 | 1.27970 | 34156 ft | 466 kts | 38° |
| 2026-04-22 12:35 | 48.56206 | 1.31783 | 34154 ft | 479 kts | 55° |
| 2026-04-22 12:35 | 48.57579 | 1.36411 | 34181 ft | 485 kts | 64° |
| 2026-04-22 12:35 | 48.59847 | 1.46049 | 34159 ft | 486 kts | 66° |
| 2026-04-22 12:36 | 48.62140 | 1.55669 | 34151 ft | 485 kts | 65° |
| 2026-04-22 12:36 | 48.64497 | 1.65222 | 34174 ft | 484 kts | 64° |
| 2026-04-22 12:37 | 48.66834 | 1.74786 | 34191 ft | 484 kts | 64° |
| 2026-04-22 12:37 | 48.69151 | 1.84359 | 34172 ft | 483 kts | 64° |
| 2026-04-22 12:38 | 48.71442 | 1.93860 | 34181 ft | 482 kts | 64° |
| 2026-04-22 12:38 | 48.73734 | 2.03391 | 34186 ft | 481 kts | 64° |
| 2026-04-22 12:39 | 48.77252 | 2.17589 | 34175 ft | 477 kts | 62° |
| 2026-04-22 12:40 | 48.79787 | 2.26872 | 34186 ft | 476 kts | 61° |
| 2026-04-22 12:40 | 48.82302 | 2.36169 | 34181 ft | 476 kts | 62° |
| 2026-04-22 12:41 | 48.84760 | 2.45419 | 34208 ft | 475 kts | 62° |
| 2026-04-22 12:41 | 48.87219 | 2.54739 | 34210 ft | 474 kts | 62° |
| 2026-04-22 12:42 | 48.89671 | 2.64056 | 34241 ft | 474 kts | 62° |
| 2026-04-22 12:42 | 48.92121 | 2.73404 | 34216 ft | 475 kts | 62° |
| 2026-04-22 12:43 | 48.94556 | 2.82740 | 34206 ft | 475 kts | 62° |
| 2026-04-22 12:43 | 48.96972 | 2.92039 | 34207 ft | 474 kts | 62° |
| 2026-04-22 12:44 | 48.98988 | 2.99824 | 34211 ft | 475 kts | 62° |
| 2026-04-22 12:44 | 49.01404 | 3.09190 | 34249 ft | 475 kts | 62° |
| 2026-04-22 12:45 | 49.03818 | 3.18582 | 34219 ft | 476 kts | 62° |
| 2026-04-22 12:45 | 49.06220 | 3.27975 | 34184 ft | 476 kts | 62° |
| 2026-04-22 12:45 | 49.07432 | 3.32718 | 33566 ft | 481 kts | 62° |
| 2026-04-22 12:46 | 49.08625 | 3.37410 | 32947 ft | 479 kts | 62° |
| 2026-04-22 12:46 | 49.09828 | 3.42152 | 32279 ft | 478 kts | 62° |
| 2026-04-22 12:46 | 49.11028 | 3.46888 | 31580 ft | 478 kts | 62° |
| 2026-04-22 12:46 | 49.12228 | 3.51632 | 30871 ft | 479 kts | 62° |
| 2026-04-22 12:47 | 49.13423 | 3.56368 | 30333 ft | 476 kts | 63° |
| 2026-04-22 12:47 | 49.14478 | 3.61153 | 29922 ft | 472 kts | 68° |
| 2026-04-22 12:47 | 49.15332 | 3.65957 | 29454 ft | 466 kts | 70° |
| 2026-04-22 12:47 | 49.16114 | 3.70736 | 28974 ft | 461 kts | 70° |
| 2026-04-22 12:48 | 49.16870 | 3.75465 | 28457 ft | 456 kts | 71° |
| 2026-04-22 12:48 | 49.17623 | 3.80146 | 27949 ft | 451 kts | 71° |
| 2026-04-22 12:48 | 49.18380 | 3.84777 | 27433 ft | 447 kts | 71° |
| 2026-04-22 12:48 | 49.19138 | 3.89357 | 26938 ft | 442 kts | 71° |
| 2026-04-22 12:49 | 49.19896 | 3.93895 | 26437 ft | 438 kts | 71° |
| 2026-04-22 12:49 | 49.20640 | 3.98337 | 25934 ft | 435 kts | 71° |
| 2026-04-22 12:49 | 49.21389 | 4.02803 | 25447 ft | 431 kts | 71° |
| 2026-04-22 12:49 | 49.22127 | 4.07222 | 24954 ft | 427 kts | 71° |
| 2026-04-22 12:50 | 49.22861 | 4.11626 | 24471 ft | 424 kts | 72° |
| 2026-04-22 12:50 | 49.23589 | 4.15977 | 24004 ft | 420 kts | 71° |
| 2026-04-22 12:50 | 49.24302 | 4.20285 | 23472 ft | 415 kts | 72° |
| 2026-04-22 12:50 | 49.25006 | 4.24549 | 22960 ft | 410 kts | 73° |
| 2026-04-22 12:51 | 49.25697 | 4.28754 | 22487 ft | 404 kts | 72° |
| 2026-04-22 12:51 | 49.26377 | 4.32901 | 22021 ft | 398 kts | 73° |
| 2026-04-22 12:51 | 49.27047 | 4.36990 | 21569 ft | 393 kts | 75° |
| 2026-04-22 12:51 | 49.27697 | 4.40971 | 21117 ft | 388 kts | 73° |
| 2026-04-22 12:52 | 49.28348 | 4.44952 | 20667 ft | 383 kts | 75° |
| 2026-04-22 12:52 | 49.28990 | 4.48892 | 20218 ft | 379 kts | 75° |
| 2026-04-22 12:52 | 49.29621 | 4.52778 | 19773 ft | 374 kts | 75° |
| 2026-04-22 12:52 | 49.30245 | 4.56627 | 19332 ft | 370 kts | 76° |
| 2026-04-22 12:53 | 49.30860 | 4.60434 | 18906 ft | 366 kts | 76° |
| 2026-04-22 12:53 | 49.31468 | 4.64203 | 18452 ft | 363 kts | 76° |
| 2026-04-22 12:53 | 49.32070 | 4.67943 | 17979 ft | 359 kts | 76° |
| 2026-04-22 12:53 | 49.32662 | 4.71633 | 17556 ft | 354 kts | 76° |
| 2026-04-22 12:54 | 49.33247 | 4.75282 | 17126 ft | 350 kts | 76° |
| 2026-04-22 12:54 | 49.33821 | 4.78876 | 16727 ft | 345 kts | 76° |
| 2026-04-22 12:54 | 49.34389 | 4.82437 | 16300 ft | 342 kts | 76° |
| 2026-04-22 12:54 | 49.34950 | 4.85963 | 15891 ft | 339 kts | 77° |
| 2026-04-22 12:55 | 49.35505 | 4.89458 | 15492 ft | 335 kts | 77° |
| 2026-04-22 12:55 | 49.36053 | 4.92917 | 15077 ft | 333 kts | 76° |
| 2026-04-22 12:55 | 49.36591 | 4.96316 | 14690 ft | 330 kts | 77° |
| 2026-04-22 12:55 | 49.37129 | 4.99729 | 14285 ft | 328 kts | 77° |
| 2026-04-22 12:56 | 49.37664 | 5.03121 | 13857 ft | 326 kts | 77° |
| 2026-04-22 12:56 | 49.38195 | 5.06497 | 13441 ft | 323 kts | 77° |
| 2026-04-22 12:56 | 49.38720 | 5.09844 | 13043 ft | 320 kts | 77° |
| 2026-04-22 12:56 | 49.39337 | 5.13116 | 12655 ft | 319 kts | 67° |
| 2026-04-22 12:57 | 49.40399 | 5.16086 | 12417 ft | 315 kts | 62° |
| 2026-04-22 12:57 | 49.41513 | 5.18987 | 12062 ft | 316 kts | 61° |
| 2026-04-22 12:57 | 49.42619 | 5.21865 | 11670 ft | 318 kts | 62° |
| 2026-04-22 12:57 | 49.43743 | 5.24815 | 11260 ft | 321 kts | 62° |
| 2026-04-22 12:58 | 49.44862 | 5.27773 | 11033 ft | 315 kts | 62° |
| 2026-04-22 12:58 | 49.45940 | 5.30634 | 10901 ft | 304 kts | 62° |
| 2026-04-22 12:58 | 49.46980 | 5.33409 | 10775 ft | 295 kts | 62° |
| 2026-04-22 12:58 | 49.47988 | 5.36106 | 10654 ft | 286 kts | 62° |
| 2026-04-22 12:59 | 49.48963 | 5.38721 | 10541 ft | 277 kts | 63° |
| 2026-04-22 12:59 | 49.49909 | 5.41263 | 10423 ft | 269 kts | 62° |
| 2026-04-22 12:59 | 49.50827 | 5.43734 | 10321 ft | 262 kts | 62° |
| 2026-04-22 12:59 | 49.51718 | 5.46134 | 10158 ft | 257 kts | 63° |
| 2026-04-22 13:00 | 49.52602 | 5.48515 | 9894 ft | 254 kts | 63° |
| 2026-04-22 13:00 | 49.53475 | 5.50873 | 9624 ft | 252 kts | 63° |
| 2026-04-22 13:00 | 49.54331 | 5.53182 | 9389 ft | 249 kts | 63° |
| 2026-04-22 13:00 | 49.55130 | 5.55539 | 9115 ft | 247 kts | 72° |
| 2026-04-22 13:01 | 49.55555 | 5.58073 | 8878 ft | 243 kts | 78° |
| 2026-04-22 13:01 | 49.55939 | 5.60605 | 8606 ft | 242 kts | 78° |
| 2026-04-22 13:01 | 49.56335 | 5.63125 | 8362 ft | 242 kts | 78° |
| 2026-04-22 13:01 | 49.56738 | 5.65645 | 8100 ft | 242 kts | 77° |
| 2026-04-22 13:02 | 49.57143 | 5.68167 | 7819 ft | 242 kts | 77° |
| 2026-04-22 13:02 | 49.57549 | 5.70680 | 7569 ft | 241 kts | 78° |
| 2026-04-22 13:02 | 49.57913 | 5.73194 | 7286 ft | 240 kts | 86° |
| 2026-04-22 13:02 | 49.57711 | 5.75729 | 7010 ft | 240 kts | 105° |
| 2026-04-22 13:03 | 49.57230 | 5.78194 | 6733 ft | 240 kts | 106° |
| 2026-04-22 13:03 | 49.56738 | 5.80662 | 6434 ft | 242 kts | 106° |
| 2026-04-22 13:03 | 49.56244 | 5.83150 | 5860 ft | 253 kts | 106° |
| 2026-04-22 13:03 | 49.55722 | 5.85799 | 5240 ft | 264 kts | 105° |
| 2026-04-22 13:04 | 49.55181 | 5.88557 | 4614 ft | 274 kts | 105° |
| 2026-04-22 13:04 | 49.54622 | 5.91418 | 3942 ft | 283 kts | 105° |
| 2026-04-22 13:04 | 49.54057 | 5.94345 | 3367 ft | 288 kts | 101° |
| 2026-04-22 13:04 | 49.54067 | 5.97354 | 3102 ft | 278 kts | 72° |
| 2026-04-22 13:05 | 49.54795 | 5.99927 | 3002 ft | 245 kts | 64° |
| 2026-04-22 13:05 | 49.55561 | 6.02077 | 2970 ft | 213 kts | 62° |
| 2026-04-22 13:05 | 49.56248 | 6.03908 | 2987 ft | 183 kts | 62° |
| 2026-04-22 13:05 | 49.56835 | 6.05496 | 2979 ft | 161 kts | 61° |
| 2026-04-22 13:06 | 49.57367 | 6.06923 | 2947 ft | 149 kts | 63° |
| 2026-04-22 13:06 | 49.57883 | 6.08312 | 2728 ft | 146 kts | 63° |
| 2026-04-22 13:06 | 49.58360 | 6.09604 | 2576 ft | 135 kts | 62° |
| 2026-04-22 13:06 | 49.58822 | 6.10855 | 2351 ft | 136 kts | 62° |
| 2026-04-22 13:07 | 49.59302 | 6.12151 | 2183 ft | 142 kts | 60° |
| 2026-04-22 13:07 | 49.59784 | 6.13448 | 1996 ft | 138 kts | 62° |
| 2026-04-22 13:07 | 49.60259 | 6.14719 | 1785 ft | 134 kts | 60° |
| 2026-04-22 13:07 | 49.60698 | 6.15947 | 1641 ft | 135 kts | 61° |
| 2026-04-22 13:08 | 49.61181 | 6.17242 | 1458 ft | 139 kts | 59° |
| 2026-04-22 13:08 | 49.61680 | 6.18554 | 1280 ft | 140 kts | 59° |
| 2026-04-22 13:08 | 49.62143 | 6.19817 | 1209 ft | 134 kts | 59° |
| 2026-04-22 13:08 | 49.62541 | 6.20876 | 1213 ft | 79 kts | 60° |
| 2026-04-22 13:09 | 49.62556 | 6.20916 | 1214 ft | 77 kts | 60° |
| 2026-04-22 13:09 | 49.62797 | 6.21569 | 1215 ft | 54 kts | 61° |
| 2026-04-22 13:09 | 49.62938 | 6.21944 | 1217 ft | 37 kts | 59° |
| 2026-04-22 13:09 | 49.63070 | 6.22115 | 1215 ft | 19 kts | 336° |
| 2026-04-22 13:10 | 49.63173 | 6.21983 | 1197 ft | 8 kts | 271° |
| 2026-04-22 13:10 | 49.63183 | 6.21897 | 1196 ft | 9 kts | 309° |
| 2026-04-22 13:10 | 49.63234 | 6.21848 | 1195 ft | 9 kts | 329° |
| 2026-04-22 13:10 | 49.63286 | 6.21802 | 1195 ft | 9 kts | 333° |
| 2026-04-22 13:11 | 49.63347 | 6.21757 | 1194 ft | 7 kts | 329° |
| 2026-04-22 13:11 | 49.63357 | 6.21748 | 1194 ft | 0 kts | 329° |
| 2026-04-22 13:11 | 49.63358 | 6.21747 | 1194 ft | 1 kts | 329° |
| 2026-04-22 13:11 | 49.63361 | 6.21744 | 1194 ft | 0 kts | 329° |